Integrity — WDC6925 — position and weather

sailwx.info

Track history (hours):
 
Tides and Currents Weather Stations Pressure Air Temp Water Temp Dewpoint Dewpoint Depression Visibility Wind Speed Wind Dir Waves Ship Positions

Integrity

Owner: TOTE Services, Inc., Jacksonville, FL. More information available from US FCC via Universal Licensing System and Coast Guard Vessel Documentation Center.

Last reported at 2017-Nov-23 12:00 UTC. Time now 2017-Nov-24 00:22 UTC.
Position N 33°36' W 007°30'.

Type: Ship. MMSI: 367063310.

Wind from 150 at 1 knots

Barometer 1023.7 mb
Air temperature 21.0 ° C
Visibility: greater than 5.4 NM
Dewpoint 9.9 ° C
Water temperature 18.0 ° C

Date/timePositionNaut miles runAvg speedWind from/ knotsBaromVisibWave heightAir tempDewpointWater temp
2017-Nov-23 12:00N 33°36' W 007°30'6 1.6 150 / 11023.7 5.4 21.0 9.918.0
2017-Nov-23 08:14N 33°40' W 007°35'3 2.0
2017-Nov-23 06:43N 33°43' W 007°37'514.2
2017-Nov-23 06:22N 33°45' W 007°42'615.2
2017-Nov-23 06:01N 33°47' W 007°48'2714.7
2017-Nov-23 04:10N 33°56' W 008°19'214.8
2017-Nov-23 04:00N 33°56' W 008°22'815.1
2017-Nov-23 03:31N 33°57' W 008°31'815.0
2017-Nov-23 02:58N 33°58' W 008°41'715.0
2017-Nov-23 02:31N 33°59' W 008°49'815.1
2017-Nov-23 02:01N 33°60' W 008°58'815.0
2017-Nov-23 01:30N 34°01' W 009°07'815.2
2017-Nov-23 01:00N 34°02' W 009°16'814.9
2017-Nov-23 00:30N 34°03' W 009°25'2314.9
2017-Nov-22 22:56N 34°06' W 009°53'615.0
2017-Nov-22 22:30N 34°06' W 010°01'1115.0
2017-Nov-22 21:45N 34°08' W 010°14'414.9
2017-Nov-22 21:30N 34°08' W 010°19'714.9
2017-Nov-22 21:01N 34°09' W 010°27'814.9
2017-Nov-22 20:30N 34°10' W 010°37'914.9
2017-Nov-22 19:52N 34°11' W 010°48'11414.5
2017-Nov-22 12:00N 34°18' W 013°06'18915.8 180 / 301015.710.8 22.017.222.0
2017-Nov-22 00:00N 34°42' W 016°54'17914.9 160 / 231014.710.8 20.018.422.0
2017-Nov-21 12:00N 35°06' W 020°30'20216.8 180 / 311015.710.8 20.016.722.0
2017-Nov-21 00:00N 35°30' W 024°36'20617.2 170 / 231014.6 5.4 20.018.422.0
2017-Nov-20 12:00N 35°54' W 028°48'9816.3 180 / 121015.710.8 21.017.822.0
2017-Nov-20 06:00N 36°06' W 030°48'31217.3 210 / 121015.210.8 20.018.422.0
2017-Nov-19 12:00N 36°48' W 037°12'   240 / 171014.710.8 22.018.022.0
2017-Nov-14 05:09N 34°11' W 077°58'1 7.6
2017-Nov-14 05:00N 34°12' W 077°57'0 0.2
2017-Nov-14 04:30N 34°12' W 077°57'0 0.1
2017-Nov-14 04:01N 34°12' W 077°57'0 0.0
2017-Nov-14 03:31N 34°12' W 077°57'0 0.0
2017-Nov-14 03:01N 34°12' W 077°57'0 0.0
2017-Nov-14 02:30N 34°12' W 077°57'0 0.0
2017-Nov-14 02:00N 34°12' W 077°57'0 0.0
2017-Nov-14 01:31N 34°12' W 077°57'0 0.0
2017-Nov-14 01:00N 34°12' W 077°57'0 0.0
2017-Nov-14 00:30N 34°12' W 077°57'0 0.0
2017-Nov-14 00:00N 34°12' W 077°57'0 0.0
2017-Nov-13 23:31N 34°12' W 077°57'0 0.0
2017-Nov-13 22:55N 34°12' W 077°57'0 0.0
2017-Nov-13 22:25N 34°12' W 077°57'0 0.0
2017-Nov-13 21:58N 34°12' W 077°57'  
Track history (hours):
 
Tides and Currents Weather Stations Pressure Air Temp Water Temp Dewpoint Dewpoint Depression Visibility Wind Speed Wind Dir Waves Ship Positions

Integrity

Owner: TOTE Services, Inc., Jacksonville, FL. More information available from US FCC via Universal Licensing System and Coast Guard Vessel Documentation Center.

Last reported at 2017-Nov-23 12:00 UTC. Time now 2017-Nov-24 00:22 UTC.
Position N 33°36' W 007°30'.

Type: Ship. MMSI: 367063310.

Wind from 150 at 1 knots

Barometer 1023.7 mb
Air temperature 21.0 ° C
Visibility: greater than 5.4 NM
Dewpoint 9.9 ° C
Water temperature 18.0 ° C

Date/timePositionNaut miles runAvg speedWind from/ knotsBaromVisibWave heightAir tempDewpointWater temp
2017-Nov-23 12:00N 33°36' W 007°30'6 1.6 150 / 11023.7 5.4 21.0 9.918.0
2017-Nov-23 08:14N 33°40' W 007°35'3 2.0
2017-Nov-23 06:43N 33°43' W 007°37'514.2
2017-Nov-23 06:22N 33°45' W 007°42'615.2
2017-Nov-23 06:01N 33°47' W 007°48'2714.7
2017-Nov-23 04:10N 33°56' W 008°19'214.8
2017-Nov-23 04:00N 33°56' W 008°22'815.1
2017-Nov-23 03:31N 33°57' W 008°31'815.0
2017-Nov-23 02:58N 33°58' W 008°41'715.0
2017-Nov-23 02:31N 33°59' W 008°49'815.1
2017-Nov-23 02:01N 33°60' W 008°58'815.0
2017-Nov-23 01:30N 34°01' W 009°07'815.2
2017-Nov-23 01:00N 34°02' W 009°16'814.9
2017-Nov-23 00:30N 34°03' W 009°25'2314.9
2017-Nov-22 22:56N 34°06' W 009°53'615.0
2017-Nov-22 22:30N 34°06' W 010°01'1115.0
2017-Nov-22 21:45N 34°08' W 010°14'414.9
2017-Nov-22 21:30N 34°08' W 010°19'714.9
2017-Nov-22 21:01N 34°09' W 010°27'814.9
2017-Nov-22 20:30N 34°10' W 010°37'914.9
2017-Nov-22 19:52N 34°11' W 010°48'11414.5
2017-Nov-22 12:00N 34°18' W 013°06'18915.8 180 / 301015.710.8 22.017.222.0
2017-Nov-22 00:00N 34°42' W 016°54'17914.9 160 / 231014.710.8 20.018.422.0
2017-Nov-21 12:00N 35°06' W 020°30'20216.8 180 / 311015.710.8 20.016.722.0
2017-Nov-21 00:00N 35°30' W 024°36'20617.2 170 / 231014.6 5.4 20.018.422.0
2017-Nov-20 12:00N 35°54' W 028°48'9816.3 180 / 121015.710.8 21.017.822.0
2017-Nov-20 06:00N 36°06' W 030°48'31217.3 210 / 121015.210.8 20.018.422.0
2017-Nov-19 12:00N 36°48' W 037°12'   240 / 171014.710.8 22.018.022.0
2017-Nov-14 05:09N 34°11' W 077°58'1 7.6
2017-Nov-14 05:00N 34°12' W 077°57'0 0.2
2017-Nov-14 04:30N 34°12' W 077°57'0 0.1
2017-Nov-14 04:01N 34°12' W 077°57'0 0.0
2017-Nov-14 03:31N 34°12' W 077°57'0 0.0
2017-Nov-14 03:01N 34°12' W 077°57'0 0.0
2017-Nov-14 02:30N 34°12' W 077°57'0 0.0
2017-Nov-14 02:00N 34°12' W 077°57'0 0.0
2017-Nov-14 01:31N 34°12' W 077°57'0 0.0
2017-Nov-14 01:00N 34°12' W 077°57'0 0.0
2017-Nov-14 00:30N 34°12' W 077°57'0 0.0
2017-Nov-14 00:00N 34°12' W 077°57'0 0.0
2017-Nov-13 23:31N 34°12' W 077°57'0 0.0
2017-Nov-13 22:55N 34°12' W 077°57'0 0.0
2017-Nov-13 22:25N 34°12' W 077°57'0 0.0
2017-Nov-13 21:58N 34°12' W 077°57'  

Dump ship's entire track history